Thursday, November 23, 2017, 1:12 PM EST
Back to Local

KDAA, Fort Belvoir

Location: Fort Belvoir, VA, United States Lat: 38.717
Local Time: 1:12 PM EST (18:12 GMT) Lon: -77.183
Time Zone: US/Eastern Elev: 68 ft

Show me the last for .
Show Decoded

2017-11-23 12:56 METAR KDAA 231756Z AUTO 30004KT 10SM CLR 07/M06 A3011 RMK AO2 SLP200 T00681065
                 10068 21041 57030 $ =
2017-11-23 11:56 METAR KDAA 231656Z AUTO 31005KT 10SM CLR 06/M07 A3013 RMK AO2 SLP207 T00591067 $
                 =
2017-11-23 10:56 METAR KDAA 231556Z AUTO 32004KT 10SM CLR 05/M06 A3017 RMK AO2 SLP220 T00491063 $
                 =
2017-11-23 09:56 METAR KDAA 231456Z AUTO 32005KT 10SM CLR 04/M06 A3020 RMK AO2 SLP231 T00371058
                 50001 $ =
2017-11-23 08:56 METAR KDAA 231356Z AUTO 00000KT 10SM CLR M02/M04 A3022 RMK AO2 SLP237 T10231043
                 $ =
2017-11-23 07:56 METAR KDAA 231256Z AUTO 00000KT 10SM CLR M03/M05 A3021 RMK AO2 SLP234 T10281048
                 $ =
2017-11-23 06:56 METAR KDAA 231156Z AUTO 00000KT 10SM CLR M03/M05 A3019 RMK AO2 SLP227 T10351055
                 10004 21038 52007 $ =
2017-11-23 05:56 METAR KDAA 231056Z AUTO 00000KT 10SM CLR M04/M05 A3019 RMK AO2 SLP227 T10371054
                 $ =
2017-11-23 04:56 METAR KDAA 230956Z AUTO 00000KT 10SM CLR M03/M05 A3018 RMK AO2 SLP224 T10331052
                 $ =
2017-11-23 03:56 METAR KDAA 230856Z AUTO 00000KT 10SM CLR M03/M05 A3017 RMK AO2 SLP220 T10301050
                 58002 $ =
2017-11-23 02:56 METAR KDAA 230756Z AUTO 00000KT 10SM CLR M02/M05 A3018 RMK AO2 SLP224 T10211049
                 $ =
2017-11-23 01:56 METAR KDAA 230656Z AUTO 00000KT 10SM CLR M01/M05 A3018 RMK AO2 SLP224 T10151050
                 $ =
2017-11-23 00:56 METAR KDAA 230556Z AUTO 00000KT 10SM CLR 00/M05 A3018 RMK AO2 SLP224 T00041046
                 10057 20004 57005 $ =
2017-11-22 23:56 METAR KDAA 230456Z AUTO 33005KT 10SM CLR 03/M05 A3018 RMK AO2 SLP223 T00271054
                 401450027 $ =
2017-11-22 22:56 METAR KDAA 230356Z AUTO 31008KT 10SM CLR 03/M05 A3019 RMK AO2 SLP227 T00291050 $
                 =
2017-11-22 21:56 METAR KDAA 230256Z AUTO 30006KT 10SM CLR 03/M05 A3019 RMK AO2 SLP227 T00291046
                 52015 $ =
2017-11-22 20:56 METAR KDAA 230156Z AUTO 31010KT 10SM FEW047 04/M05 A3018 RMK AO2 SLP223
                 T00441049 $ =
2017-11-22 19:56 METAR KDAA 230056Z AUTO 32008G16KT 10SM CLR 05/M05 A3016 RMK AO2 SLP217
                 T00541047 $ =
2017-11-22 18:56 METAR KDAA 222356Z AUTO 31008KT 10SM CLR 06/M04 A3015 RMK AO2 SLP213 T00581038
                 10123 20058 52026 $ =
2017-11-22 17:56 METAR KDAA 222256Z AUTO 32009KT 10SM FEW050 07/M04 A3013 RMK AO2 SLP207
                 T00711037 $ =
2017-11-22 16:56 METAR KDAA 222156Z AUTO 33012G21KT 10SM OVC050 09/M03 A3011 RMK AO2 SLP200
                 T00861027 $ =
2017-11-22 15:56 METAR KDAA 222056Z AUTO 33015G18KT 10SM FEW050 10/M02 A3007 RMK AO2 SLP186
                 T00991021 53019 $ =
2017-11-22 14:56 METAR KDAA 221956Z AUTO 32010G23KT 10SM CLR 11/M02 A3004 RMK AO2 PK WND 31027/24
                 SLP176 T01111023 $ =
2017-11-22 13:56 METAR KDAA 221856Z AUTO 30017G23KT 10SM FEW055 12/M02 A3002 RMK AO2 PK WND
                 32027/23 SLP169 T01191016 $ =
2017-11-22 13:29 METAR KDAA 221829Z AUTO 33011G27KT 10SM FEW055 12/M02 A3003 RMK AO2 WSHFT 17
                 SLP173 $ =

Support USWX by starting your Amazon purchase here.